Time;durP1;ratioP1;P1;durP2;ratioP2;P2;SDS_P1;SDS_P2;PMS_P1;PMS_P2;Temp;Humidity;BMP_temperature;BMP_pressure;BME280_temperature;BME280_humidity;BME280_pressure;Samples;Min_cycle;Max_cycle;Signal;HPM_P1;HPM_P2
2021/05/13 06:19:14;;;;;;;7.37;5.45;;;;;;;12.79;97.77;100730.98;1769882;80;21016;-75
2021/05/13 06:21:42;;;;;;;6.95;6.17;;;;;;;12.77;98.05;100734.16;1769866;80;20948;-76
2021/05/13 06:24:11;;;;;;;9.33;5.83;;;;;;;12.73;98.34;100740.55;1769908;81;21723;-76
2021/05/13 06:26:41;;;;;;;10.60;5.40;;;;;;;12.76;98.71;100741.63;1770361;80;20917;-77
2021/05/13 06:29:08;;;;;;;9.33;6.60;;;;;;;12.76;98.80;100733.81;1770089;81;21041;-73
2021/05/13 06:31:35;;;;;;;8.63;6.15;;;;;;;12.77;98.99;100733.31;1770376;81;21510;-75
2021/05/13 06:34:04;;;;;;;8.05;6.10;;;;;;;12.78;99.40;100738.42;1770207;81;21539;-77
2021/05/13 06:36:31;;;;;;;7.35;5.60;;;;;;;12.80;99.62;100736.99;1770007;81;21077;-76
2021/05/13 06:38:59;;;;;;;6.75;6.08;;;;;;;12.82;99.96;100731.22;1769875;81;20882;-76
2021/05/13 06:41:26;;;;;;;10.08;7.72;;;;;;;12.82;99.96;100735.13;1768607;80;20973;-77
2021/05/13 06:43:53;;;;;;;9.53;7.45;;;;;;;12.81;100.00;100729.55;1768774;80;21073;-77
2021/05/13 06:46:22;;;;;;;13.98;7.40;;;;;;;12.85;100.00;100729.22;1768292;81;21016;-75
2021/05/13 06:48:49;;;;;;;7.40;6.60;;;;;;;12.90;100.00;100731.00;1768740;81;21673;-77
2021/05/13 06:51:16;;;;;;;10.93;6.62;;;;;;;12.94;100.00;100733.73;1768255;81;21146;-77
2021/05/13 06:53:43;;;;;;;10.93;6.42;;;;;;;12.93;100.00;100741.19;1767690;81;21037;-75
2021/05/13 06:56:25;;;;;;;11.97;7.53;;;;;;;12.98;100.00;100744.77;1767626;81;21664;-73
2021/05/13 06:59:03;;;;;;;6.35;5.10;;;;;;;13.03;100.00;100750.45;1767741;81;21128;-76
2021/05/13 07:01:35;;;;;;;8.68;5.25;;;;;;;13.08;100.00;100749.66;1740490;80;21072;-76
2021/05/13 07:04:04;;;;;;;8.03;5.20;;;;;;;13.10;100.00;100750.39;1768372;81;21621;-74
2021/05/13 07:06:33;;;;;;;6.95;4.62;;;;;;;13.15;100.00;100746.95;1767945;80;21213;-75
2021/05/13 07:09:06;;;;;;;6.12;4.42;;;;;;;13.18;100.00;100746.72;1767955;81;21023;-76
2021/05/13 07:11:34;;;;;;;5.08;4.33;;;;;;;13.21;100.00;100741.27;1767876;81;21076;-76
2021/05/13 07:14:01;;;;;;;5.12;4.53;;;;;;;13.25;100.00;100736.20;1768388;80;21153;-76
2021/05/13 07:16:30;;;;;;;5.67;4.05;;;;;;;13.31;100.00;100740.11;1767629;81;21030;-77
2021/05/13 07:18:58;;;;;;;8.73;4.67;;;;;;;13.36;100.00;100732.78;1767588;80;21104;-78
2021/05/13 07:21:26;;;;;;;7.30;4.30;;;;;;;13.42;100.00;100734.92;1767394;81;21053;-75
2021/05/13 07:23:53;;;;;;;8.95;4.85;;;;;;;13.49;99.67;100741.33;1767471;81;21546;-74
2021/05/13 07:26:22;;;;;;;5.50;4.05;;;;;;;13.54;99.01;100745.23;1767464;81;21159;-75
2021/05/13 07:28:49;;;;;;;5.87;4.53;;;;;;;13.54;98.38;100744.40;1767409;81;21015;-76
2021/05/13 07:31:18;;;;;;;9.23;4.60;;;;;;;13.58;98.11;100745.83;1766379;81;21028;-76
2021/05/13 07:33:45;;;;;;;7.58;4.30;;;;;;;13.59;97.71;100750.11;1767469;81;21115;-76
2021/05/13 07:36:12;;;;;;;5.97;4.20;;;;;;;13.64;97.54;100745.36;1766824;80;21096;-75
2021/05/13 07:38:40;;;;;;;7.33;4.00;;;;;;;13.71;97.08;100749.16;1767205;81;21099;-76
2021/05/13 07:41:07;;;;;;;5.62;4.25;;;;;;;13.77;96.59;100751.28;1767675;81;21032;-74
2021/05/13 07:43:35;;;;;;;6.90;4.17;;;;;;;13.79;95.99;100751.52;1767572;81;21114;-76
2021/05/13 07:46:04;;;;;;;6.22;5.03;;;;;;;13.82;95.80;100753.52;1768281;81;20925;-73
2021/05/13 07:48:32;;;;;;;6.22;4.10;;;;;;;13.83;95.38;100753.41;1767497;81;21140;-74
2021/05/13 07:51:01;;;;;;;5.85;4.15;;;;;;;13.83;94.96;100753.88;1768022;80;21007;-74
2021/05/13 07:53:28;;;;;;;6.62;4.00;;;;;;;13.85;94.83;100749.39;1768272;81;21044;-76
2021/05/13 07:55:56;;;;;;;9.65;4.75;;;;;;;13.85;94.24;100744.98;1768184;80;21044;-75
2021/05/13 07:58:24;;;;;;;8.73;4.22;;;;;;;13.90;93.86;100744.63;1765153;80;20989;-76
2021/05/13 08:00:51;;;;;;;7.42;4.28;;;;;;;13.98;93.43;100743.54;1726983;80;21091;-75
2021/05/13 08:03:19;;;;;;;5.42;4.37;;;;;;;14.06;93.26;100745.92;1713484;83;22067;-75
2021/05/13 08:05:46;;;;;;;6.40;3.77;;;;;;;14.10;93.06;100742.59;1766622;80;20980;-77
2021/05/13 08:08:13;;;;;;;4.95;4.12;;;;;;;14.11;92.89;100746.38;1765521;80;21142;-76
2021/05/13 08:10:41;;;;;;;5.28;3.62;;;;;;;14.11;93.02;100741.63;1765496;81;21684;-76
2021/05/13 08:13:09;;;;;;;5.03;3.30;;;;;;;14.17;92.88;100746.36;1765517;81;21005;-75
2021/05/13 08:15:37;;;;;;;8.48;4.78;;;;;;;14.26;93.02;100746.45;1766987;80;21523;-75
2021/05/13 08:18:04;;;;;;;6.33;3.47;;;;;;;14.40;92.50;100751.08;1766649;80;21582;-76
2021/05/13 08:20:35;;;;;;;5.58;3.70;;;;;;;14.52;92.52;100744.89;1766972;80;20957;-75
2021/05/13 08:23:02;;;;;;;6.78;3.52;;;;;;;14.62;92.57;100747.08;1766797;81;21037;-76
2021/05/13 08:25:29;;;;;;;6.33;3.55;;;;;;;14.64;92.41;100739.97;1766501;80;21550;-75
2021/05/13 08:27:56;;;;;;;6.20;3.72;;;;;;;14.61;92.08;100739.75;1766012;80;21254;-74
2021/05/13 08:30:23;;;;;;;6.08;3.20;;;;;;;14.58;92.27;100732.64;1766130;80;21029;-75
2021/05/13 08:32:54;;;;;;;6.10;3.70;;;;;;;14.58;92.13;100728.22;1759576;80;21013;-78
2021/05/13 08:35:21;;;;;;;5.40;3.20;;;;;;;14.55;92.16;100730.28;1765946;81;21061;-75
2021/05/13 08:37:50;;;;;;;8.73;3.15;;;;;;;14.52;92.33;100730.03;1766817;80;21493;-74
2021/05/13 08:40:17;;;;;;;5.28;3.15;;;;;;;14.51;92.54;100732.78;1765545;80;21503;-76
2021/05/13 08:42:45;;;;;;;4.60;3.30;;;;;;;14.51;92.92;100729.70;1766064;81;21104;-75
2021/05/13 08:45:13;;;;;;;4.80;3.30;;;;;;;14.55;93.20;100719.33;1765864;81;21040;-77
2021/05/13 08:47:45;;;;;;;7.70;3.90;;;;;;;14.60;93.39;100721.58;1765924;80;21737;-76
2021/05/13 08:50:14;;;;;;;5.80;3.02;;;;;;;14.63;93.88;100714.33;1766138;81;21101;-73
2021/05/13 08:52:41;;;;;;;7.47;3.05;;;;;;;14.66;94.53;100717.99;1764963;81;21177;-76
2021/05/13 08:55:08;;;;;;;6.90;3.25;;;;;;;14.68;94.63;100712.16;1766081;81;21024;-76
2021/05/13 08:57:35;;;;;;;4.80;3.20;;;;;;;14.73;95.05;100707.40;1766829;80;21654;-75
2021/05/13 09:00:06;;;;;;;5.95;4.08;;;;;;;14.82;95.16;100713.63;1766259;81;21081;-74
2021/05/13 09:02:35;;;;;;;4.85;3.65;;;;;;;14.85;95.10;100713.38;1767013;80;21127;-76
2021/05/13 09:05:02;;;;;;;8.50;3.27;;;;;;;14.89;94.98;100713.95;1767482;81;21660;-72
2021/05/13 09:07:31;;;;;;;5.58;3.25;;;;;;;14.92;94.74;100709.78;1767563;81;21092;-75
2021/05/13 09:10:09;;;;;;;4.83;3.20;;;;;;;14.93;93.91;100711.45;1767883;81;21293;-74
2021/05/13 09:12:42;;;;;;;7.35;3.47;;;;;;;14.90;93.59;100705.97;1767648;81;21072;-74
2021/05/13 09:15:21;;;;;;;6.92;2.90;;;;;;;14.96;93.72;100707.27;1767885;81;21158;-74
2021/05/13 09:17:51;;;;;;;5.10;3.20;;;;;;;14.99;93.12;100701.79;1766051;81;21174;-76
2021/05/13 09:20:36;;;;;;;4.42;3.20;;;;;;;15.00;92.47;100697.72;1768470;80;20976;-75
2021/05/13 09:23:17;;;;;;;5.20;2.90;;;;;;;15.05;91.79;100699.49;1767974;81;20964;-73
2021/05/13 09:25:48;;;;;;;5.65;3.20;;;;;;;15.14;91.22;100690.87;1767883;81;21147;-76
2021/05/13 09:28:15;;;;;;;6.83;3.05;;;;;;;15.18;90.47;100693.59;1768285;80;21100;-76
2021/05/13 09:30:42;;;;;;;6.03;3.10;;;;;;;15.18;90.32;100696.67;1745404;80;21103;-75
2021/05/13 09:33:10;;;;;;;4.67;2.95;;;;;;;15.26;89.98;100698.14;1767992;80;21086;-75
2021/05/13 09:35:37;;;;;;;7.08;2.83;;;;;;;15.32;89.43;100693.70;1769710;80;20976;-74
2021/05/13 09:38:08;;;;;;;3.67;2.40;;;;;;;15.39;89.12;100689.61;1768124;80;21677;-74
2021/05/13 09:40:49;;;;;;;5.15;2.15;;;;;;;15.46;88.10;100689.44;1768080;81;21542;-75
2021/05/13 09:43:22;;;;;;;9.05;2.70;;;;;;;15.55;87.33;100698.30;1766585;81;21513;-76
2021/05/13 09:45:58;;;;;;;4.50;2.80;;;;;;;15.66;86.67;100690.38;1768137;81;21108;-76
2021/05/13 09:48:45;;;;;;;9.85;2.95;;;;;;;15.78;85.93;100690.61;1768189;81;21004;-73
2021/05/13 09:51:36;;;;;;;4.58;2.30;;;;;;;15.87;85.58;100684.56;1767792;81;21063;-75
2021/05/13 09:54:15;;;;;;;6.97;2.60;;;;;;;15.95;85.69;100683.43;1768332;81;21065;-76
2021/05/13 09:56:49;;;;;;;3.08;2.37;;;;;;;16.03;85.10;100683.56;1768240;81;21540;-77
2021/05/13 09:59:38;;;;;;;6.17;2.37;;;;;;;16.10;84.71;100679.92;1768315;80;20993;-76
2021/05/13 10:02:07;;;;;;;5.20;2.37;;;;;;;16.16;84.44;100669.73;1776034;80;21068;-77
2021/05/13 10:04:34;;;;;;;5.08;3.20;;;;;;;16.24;83.95;100679.55;1750950;81;21084;-78
2021/05/13 10:07:03;;;;;;;6.50;2.10;;;;;;;16.34;83.55;100680.34;1785497;80;21181;-77
2021/05/13 10:09:31;;;;;;;3.60;2.30;;;;;;;16.50;82.89;100673.24;1750708;81;21841;-76
2021/05/13 10:12:00;;;;;;;4.05;2.45;;;;;;;16.75;82.24;100676.15;1785601;80;21056;-75
2021/05/13 10:14:28;;;;;;;4.95;3.12;;;;;;;17.08;81.21;100677.95;1750859;81;21048;-76
2021/05/13 10:16:57;;;;;;;7.83;3.55;;;;;;;17.24;79.84;100680.80;1785928;80;21008;-79
2021/05/13 10:19:42;;;;;;;6.20;2.80;;;;;;;17.43;78.73;100688.11;1751374;81;21692;-82
2021/05/13 10:22:14;;;;;;;6.78;2.77;;;;;;;18.05;76.53;100685.75;1785935;80;21093;-84
2021/05/13 10:24:42;;;;;;;5.50;3.12;;;;;;;18.41;75.71;100686.91;1785611;80;21016;-77
2021/05/13 10:27:21;;;;;;;4.62;2.60;;;;;;;18.53;73.40;100684.09;1751345;81;21127;-80
2021/05/13 10:30:00;;;;;;;5.45;2.30;;;;;;;18.47;71.43;100676.31;1785685;80;21040;-77
2021/05/13 10:32:31;;;;;;;5.22;2.35;;;;;;;18.35;70.53;100673.55;1750677;81;21128;-75
2021/05/13 10:34:59;;;;;;;7.70;2.65;;;;;;;18.17;71.08;100667.00;1785732;80;21052;-78
2021/05/13 10:37:37;;;;;;;3.90;2.60;;;;;;;17.92;70.84;100667.73;1751081;81;21622;-81
2021/05/13 10:40:42;;;;;;;6.95;2.58;;;;;;;17.74;71.49;100666.37;1786160;80;21638;-80
2021/05/13 10:43:05;;;;;;;2.92;2.40;;;;;;;17.72;71.95;100665.70;1781484;80;21660;-77
2021/05/13 10:45:38;;;;;;;6.58;2.90;;;;;;;17.72;71.16;100659.14;1751388;81;21092;-80
2021/05/13 10:48:27;;;;;;;4.65;2.25;;;;;;;17.68;71.24;100656.46;1785230;80;22228;-85
2021/05/13 10:51:04;;;;;;;9.30;2.67;;;;;;;17.68;70.90;100651.21;1750674;81;20967;-80
2021/05/13 10:53:43;;;;;;;3.70;2.45;;;;;;;17.71;70.85;100651.43;1785226;80;21035;-79
2021/05/13 10:56:24;;;;;;;4.28;2.37;;;;;;;17.73;70.72;100646.84;1750925;81;21028;-84
2021/05/13 10:59:08;;;;;;;3.20;2.20;;;;;;;17.81;71.25;100643.81;1780105;80;21128;-79
2021/05/13 11:01:52;;;;;;;3.33;2.62;;;;;;;18.04;71.06;100639.45;1759422;81;21100;-83
2021/05/13 11:04:34;;;;;;;5.87;2.85;;;;;;;18.33;70.26;100634.31;1759697;81;21068;-83
2021/05/13 11:07:07;;;;;;;5.22;2.00;;;;;;;18.46;69.41;100629.98;1759301;81;20997;-76
2021/05/13 11:09:47;;;;;;;5.20;2.52;;;;;;;18.48;67.98;100622.75;1740945;81;20974;-76
2021/05/13 11:12:24;;;;;;;2.83;2.50;;;;;;;18.47;67.57;100611.92;1759928;81;20968;-76
2021/05/13 11:17:53;;;;;;;4.12;2.65;;;;;;;18.41;66.71;100619.91;1759858;81;21055;-80
2021/05/13 11:20:28;;;;;;;7.20;3.00;;;;;;;18.44;66.45;100625.38;1759933;81;20953;-78
2021/05/13 11:23:07;;;;;;;5.50;2.90;;;;;;;18.48;66.53;100625.38;1762573;81;21179;-82
2021/05/13 11:25:41;;;;;;;3.72;2.25;;;;;;;18.54;66.98;100625.31;1761334;81;20902;-81
2021/05/13 11:28:33;;;;;;;5.15;2.67;;;;;;;18.61;66.75;100623.70;1759959;81;21145;-82
2021/05/13 11:31:12;;;;;;;3.02;2.20;;;;;;;18.67;66.33;100615.20;1760404;81;21629;-84
2021/05/13 11:33:50;;;;;;;9.13;2.70;;;;;;;18.69;65.25;100610.63;1760072;81;21676;-85
2021/05/13 11:36:28;;;;;;;8.18;2.60;;;;;;;18.71;64.99;100609.97;1759372;81;21483;-80
2021/05/13 11:39:04;;;;;;;4.47;2.00;;;;;;;18.69;64.22;100619.83;1758701;81;20985;-76
2021/05/13 11:41:32;;;;;;;4.95;3.00;;;;;;;18.64;62.18;100615.02;1758961;80;21120;-75
2021/05/13 11:43:59;;;;;;;7.20;2.58;;;;;;;18.60;62.71;100613.70;1758716;80;21331;-80
2021/05/13 11:46:30;;;;;;;7.08;2.55;;;;;;;18.55;62.26;100609.86;1758858;81;21598;-79
2021/05/13 11:48:55;;;;;;;3.45;2.37;;;;;;;18.47;62.44;100604.84;1758236;80;21020;-75
2021/05/13 11:51:28;;;;;;;4.60;2.40;;;;;;;18.48;63.12;100611.76;1759150;81;21165;-79
2021/05/13 11:54:04;;;;;;;7.62;2.50;;;;;;;18.57;63.47;100612.66;1758483;81;22362;-76
2021/05/13 11:56:34;;;;;;;6.67;2.30;;;;;;;18.70;63.92;100605.20;1758900;81;21080;-75
2021/05/13 11:59:01;;;;;;;5.08;2.00;;;;;;;18.89;62.74;100611.56;1759040;81;21123;-75
2021/05/13 12:01:37;;;;;;;5.85;2.60;;;;;;;19.20;61.40;100601.87;1758397;81;21260;-78
2021/05/13 12:04:11;;;;;;;4.90;2.35;;;;;;;19.51;60.20;100602.51;1758595;80;20992;-77
2021/05/13 12:07:01;;;;;;;3.30;2.10;;;;;;;19.70;58.66;100604.04;1758849;81;21734;-74
2021/05/13 12:09:25;;;;;;;6.35;2.77;;;;;;;19.87;57.18;100597.83;1758092;81;21024;-77
2021/05/13 12:11:54;;;;;;;8.40;6.17;;;;;;;19.95;56.85;100614.94;1758502;81;21139;-79
2021/05/13 12:14:27;;;;;;;29.12;26.12;;;;;;;19.92;55.95;100609.17;1758512;81;21111;-78
2021/05/13 12:17:00;;;;;;;12.68;8.33;;;;;;;19.84;55.41;100606.54;1758097;80;21047;-72
2021/05/13 12:19:28;;;;;;;5.75;2.85;;;;;;;19.84;55.12;100612.64;1758459;80;21281;-78
2021/05/13 12:21:57;;;;;;;5.03;2.20;;;;;;;19.84;54.67;100605.22;1758586;81;21081;-82
2021/05/13 12:24:41;;;;;;;5.35;2.42;;;;;;;19.86;55.40;100609.34;1758428;81;21620;-74
2021/05/13 12:27:11;;;;;;;2.35;1.77;;;;;;;19.98;55.08;100608.03;1739412;81;21021;-75
2021/05/13 12:29:41;;;;;;;7.10;1.95;;;;;;;20.15;54.51;100600.97;1758588;81;21004;-79
2021/05/13 12:32:10;;;;;;;4.83;2.20;;;;;;;20.18;53.57;100595.38;1758281;81;21128;-78
2021/05/13 12:34:41;;;;;;;4.75;2.05;;;;;;;20.16;53.47;100597.84;1758492;81;20973;-79
2021/05/13 12:37:23;;;;;;;3.10;1.90;;;;;;;20.28;53.29;100604.47;1758514;81;21119;-75
2021/05/13 12:39:51;;;;;;;5.62;2.00;;;;;;;20.32;53.48;100600.03;1758393;81;21716;-73
2021/05/13 12:42:29;;;;;;;5.90;2.30;;;;;;;20.38;53.96;100599.85;1758656;81;21450;-77
2021/05/13 12:45:24;;;;;;;4.60;1.67;;;;;;;20.38;53.61;100584.87;1758876;81;21078;-75
2021/05/13 12:48:01;;;;;;;2.80;2.08;;;;;;;20.35;53.10;100581.73;1758374;81;21660;-78
2021/05/13 12:50:27;;;;;;;5.50;1.85;;;;;;;20.44;51.25;100585.52;1758686;81;21084;-78
2021/05/13 12:53:13;;;;;;;4.05;1.82;;;;;;;20.47;50.88;100581.23;1758356;81;20997;-76
2021/05/13 12:55:43;;;;;;;3.77;1.95;;;;;;;20.45;51.16;100584.50;1758695;81;21509;-75
2021/05/13 12:58:15;;;;;;;4.58;2.55;;;;;;;20.23;51.13;100574.61;1758554;81;21013;-72
2021/05/13 13:00:44;;;;;;;4.22;1.82;;;;;;;19.97;51.75;100572.66;1758604;81;21321;-77
2021/05/13 13:03:15;;;;;;;6.08;2.30;;;;;;;19.97;52.36;100566.06;1758556;81;21075;-77
2021/05/13 13:05:43;;;;;;;3.77;1.80;;;;;;;20.43;51.82;100564.58;1759332;81;21017;-75
2021/05/13 13:08:10;;;;;;;4.67;2.10;;;;;;;21.17;49.75;100559.45;1758714;81;21092;-75
2021/05/13 13:10:44;;;;;;;3.33;1.70;;;;;;;21.89;47.86;100551.65;1758868;81;21075;-73
2021/05/13 13:13:24;;;;;;;3.92;1.70;;;;;;;22.29;47.92;100542.05;1758472;81;21209;-84
2021/05/13 13:16:01;;;;;;;4.83;1.77;;;;;;;22.31;46.44;100548.45;1758838;81;21064;-76
2021/05/13 13:18:25;;;;;;;3.90;1.80;;;;;;;22.32;45.01;100548.30;1758334;81;21080;-80
2021/05/13 13:20:54;;;;;;;3.12;1.62;;;;;;;22.51;44.68;100546.45;1758823;81;21004;-80
2021/05/13 13:23:29;;;;;;;2.17;1.40;;;;;;;22.82;41.93;100546.80;1758440;81;21650;-71
2021/05/13 13:26:03;;;;;;;4.12;1.80;;;;;;;23.01;42.24;100539.13;1758818;81;20942;-81
2021/05/13 13:28:39;;;;;;;2.98;1.32;;;;;;;22.89;41.97;100535.81;1758818;81;20993;-77
2021/05/13 13:31:18;;;;;;;7.97;2.00;;;;;;;22.66;42.19;100534.08;1758918;81;21017;-74
2021/05/13 13:33:35;;;;;;;3.83;1.80;;;;;;;22.39;42.83;100537.82;1762046;80;21084;-72
2021/05/13 13:36:04;;;;;;;2.90;1.67;;;;;;;22.23;43.46;100535.33;1760082;81;21051;-76
2021/05/13 13:38:31;;;;;;;5.00;1.55;;;;;;;22.18;42.87;100539.02;1759876;81;21636;-78
2021/05/13 13:41:00;;;;;;;2.92;1.70;;;;;;;22.14;42.24;100543.31;1760194;81;20995;-79
2021/05/13 13:43:30;;;;;;;2.30;1.27;;;;;;;22.23;41.37;100543.26;1760085;80;20976;-77
2021/05/13 13:46:01;;;;;;;2.75;1.35;;;;;;;22.67;41.02;100541.52;1759983;81;21486;-76
2021/05/13 13:48:29;;;;;;;2.90;1.55;;;;;;;23.26;40.33;100533.03;1759863;81;21178;-76
2021/05/13 13:50:59;;;;;;;9.05;2.55;;;;;;;23.43;39.64;100542.41;1760018;81;20965;-79
2021/05/13 13:53:28;;;;;;;6.25;1.75;;;;;;;23.36;38.78;100536.68;1760677;80;20937;-78
2021/05/13 13:55:57;;;;;;;4.83;1.82;;;;;;;23.30;38.93;100532.13;1760691;81;20921;-75
2021/05/13 13:58:24;;;;;;;3.40;1.47;;;;;;;23.46;38.32;100519.52;1760981;81;21578;-73
2021/05/13 14:00:52;;;;;;;3.27;1.32;;;;;;;23.71;35.83;100518.64;1761462;81;21659;-78
2021/05/13 14:03:20;;;;;;;3.70;1.60;;;;;;;23.74;35.35;100526.73;1760735;81;21020;-77
2021/05/13 14:05:48;;;;;;;4.87;1.60;;;;;;;23.72;35.07;100530.89;1760505;81;20902;-75
2021/05/13 14:08:16;;;;;;;3.02;1.60;;;;;;;23.70;34.59;100517.84;1741820;81;20921;-79
2021/05/13 14:10:46;;;;;;;6.25;1.60;;;;;;;23.43;34.72;100523.88;1767009;80;21084;-73
2021/05/13 14:13:15;;;;;;;2.22;1.35;;;;;;;23.02;35.05;100523.57;1762377;81;20980;-72
2021/05/13 14:15:43;;;;;;;3.40;1.60;;;;;;;22.63;36.27;100521.19;1755362;81;21051;-73
2021/05/13 14:18:12;;;;;;;2.27;1.20;;;;;;;22.39;35.56;100515.34;1755549;81;20909;-74
2021/05/13 14:20:40;;;;;;;3.75;2.20;;;;;;;22.10;35.92;100514.80;1755297;80;20936;-78
2021/05/13 14:23:08;;;;;;;2.05;1.52;;;;;;;21.82;36.74;100514.52;1755505;81;21004;-76
2021/05/13 14:25:35;;;;;;;4.60;1.45;;;;;;;21.66;37.05;100516.45;1755238;81;21023;-75
2021/05/13 14:28:02;;;;;;;3.10;1.57;;;;;;;21.72;37.64;100509.97;1755512;81;21051;-80
2021/05/13 14:30:29;;;;;;;5.85;1.32;;;;;;;21.76;38.18;100504.63;1755578;81;20972;-75
2021/05/13 14:32:56;;;;;;;2.33;1.40;;;;;;;21.63;37.87;100505.22;1755335;81;21324;-77
2021/05/13 14:35:26;;;;;;;2.12;1.60;;;;;;;21.54;37.98;100519.48;1755346;81;20936;-76
2021/05/13 14:37:57;;;;;;;3.47;1.52;;;;;;;21.37;37.71;100512.68;1755279;81;21098;-74
2021/05/13 14:40:25;;;;;;;6.28;1.67;;;;;;;21.23;37.69;100510.77;1755149;81;20972;-78
2021/05/13 14:43:11;;;;;;;2.17;1.77;;;;;;;21.03;37.78;100504.23;1757775;81;20977;-75
2021/05/13 14:45:38;;;;;;;2.10;1.40;;;;;;;20.98;37.89;100507.90;1759967;81;20933;-78
2021/05/13 14:48:15;;;;;;;5.60;1.67;;;;;;;21.16;37.89;100514.26;1760100;81;20981;-71
2021/05/13 14:50:36;;;;;;;1.95;1.35;;;;;;;21.27;37.86;100516.52;1758835;81;21096;-76
2021/05/13 14:53:03;;;;;;;2.08;1.50;;;;;;;21.32;37.73;100511.05;1759919;81;20948;-80
2021/05/13 14:55:30;;;;;;;4.03;1.22;;;;;;;21.21;37.73;100510.12;1759889;81;21000;-78
2021/05/13 14:57:59;;;;;;;3.45;1.45;;;;;;;21.18;37.44;100508.33;1759684;81;21048;-77
2021/05/13 15:00:26;;;;;;;2.42;1.62;;;;;;;21.36;37.89;100508.39;1759961;81;21069;-75
2021/05/13 15:02:54;;;;;;;3.40;1.60;;;;;;;22.07;37.68;100497.48;1759937;81;21076;-77
2021/05/13 15:05:21;;;;;;;2.35;1.60;;;;;;;22.28;36.77;100495.45;1760036;81;21044;-77
2021/05/13 15:07:48;;;;;;;4.75;1.60;;;;;;;22.17;36.37;100493.76;1759916;81;20901;-82
2021/05/13 15:10:15;;;;;;;2.58;1.40;;;;;;;21.80;36.68;100499.81;1760072;81;20973;-74
2021/05/13 15:12:43;;;;;;;5.20;1.42;;;;;;;21.62;37.60;100500.95;1759876;81;20984;-80
2021/05/13 15:15:16;;;;;;;3.47;1.50;;;;;;;21.49;37.25;100499.39;1760297;81;22154;-79
2021/05/13 15:17:39;;;;;;;5.17;1.70;;;;;;;21.36;37.46;100498.31;1759148;81;21001;-76
2021/05/13 15:20:09;;;;;;;2.10;1.30;;;;;;;21.21;37.69;100492.98;1759924;81;21005;-79
2021/05/13 15:22:37;;;;;;;4.03;1.57;;;;;;;21.23;38.21;100484.37;1759872;81;21004;-79
2021/05/13 15:25:04;;;;;;;4.12;1.70;;;;;;;21.28;37.96;100483.38;1760067;81;20973;-76
2021/05/13 15:27:32;;;;;;;4.85;2.10;;;;;;;21.52;37.81;100475.28;1760039;81;21140;-80
2021/05/13 15:29:59;;;;;;;3.90;1.70;;;;;;;22.11;36.68;100467.55;1759894;81;21470;-83
2021/05/13 15:32:27;;;;;;;2.72;1.55;;;;;;;22.23;36.46;100462.14;1759955;81;20905;-80
2021/05/13 15:34:54;;;;;;;2.72;1.40;;;;;;;22.09;36.39;100460.28;1759929;81;21012;-76
2021/05/13 15:37:21;;;;;;;3.80;1.52;;;;;;;21.78;37.43;100443.71;1759883;81;20992;-73
2021/05/13 15:39:48;;;;;;;3.65;1.70;;;;;;;21.38;38.03;100450.95;1759948;81;21160;-79
2021/05/13 15:42:15;;;;;;;3.05;1.70;;;;;;;20.99;38.39;100449.70;1759906;81;21542;-74
2021/05/13 15:44:43;;;;;;;2.58;1.52;;;;;;;20.70;38.71;100454.78;1760027;81;20989;-76
2021/05/13 15:47:10;;;;;;;2.75;1.60;;;;;;;20.47;39.20;100449.91;1760018;81;20909;-75
2021/05/13 15:49:37;;;;;;;2.62;1.80;;;;;;;20.29;39.90;100452.78;1759834;81;21015;-76
2021/05/13 15:52:07;;;;;;;2.77;1.52;;;;;;;20.14;39.98;100449.14;1759783;81;21476;-73
2021/05/13 15:54:34;;;;;;;3.87;1.67;;;;;;;19.94;40.39;100457.89;1759723;81;20973;-75
2021/05/13 15:57:01;;;;;;;3.70;1.87;;;;;;;19.78;40.80;100453.15;1760405;81;20977;-80
2021/05/13 15:59:29;;;;;;;3.20;1.70;;;;;;;19.60;41.19;100453.78;1760810;81;20893;-78
2021/05/13 16:01:56;;;;;;;3.17;1.90;;;;;;;19.46;41.62;100445.55;1761339;81;20917;-73
2021/05/13 16:04:23;;;;;;;3.02;2.12;;;;;;;19.33;41.78;100442.57;1761372;81;21016;-73
2021/05/13 16:06:51;;;;;;;3.35;1.87;;;;;;;19.19;42.31;100444.51;1761154;81;20981;-79
2021/05/13 16:09:18;;;;;;;2.58;1.62;;;;;;;19.10;42.90;100437.59;1760706;80;20917;-79
2021/05/13 16:11:47;;;;;;;3.27;1.77;;;;;;;19.08;43.31;100438.74;1759774;81;21835;-84
2021/05/13 16:14:15;;;;;;;5.22;1.95;;;;;;;19.03;44.26;100433.47;1760158;81;20934;-79
2021/05/13 16:16:42;;;;;;;2.90;1.67;;;;;;;19.04;44.48;100434.30;1759777;81;21108;-77
2021/05/13 16:19:10;;;;;;;2.42;1.80;;;;;;;19.06;44.96;100427.54;1760003;81;20901;-77
2021/05/13 16:21:37;;;;;;;4.42;1.80;;;;;;;18.96;45.64;100439.03;1760289;81;20937;-79
2021/05/13 16:24:06;;;;;;;3.85;1.98;;;;;;;18.86;45.93;100431.77;1760006;81;20945;-80
2021/05/13 16:26:34;;;;;;;5.00;1.90;;;;;;;18.80;46.30;100433.72;1760089;81;21526;-76
2021/05/13 16:29:01;;;;;;;4.00;2.30;;;;;;;18.74;46.81;100433.53;1760045;81;21116;-76
2021/05/13 16:31:29;;;;;;;4.90;2.02;;;;;;;18.67;46.17;100431.20;1759808;81;20936;-77
2021/05/13 16:33:56;;;;;;;3.12;1.98;;;;;;;18.53;46.13;100431.81;1759871;81;21636;-79
2021/05/13 16:36:23;;;;;;;4.28;2.30;;;;;;;18.46;46.40;100439.47;1760353;81;21071;-77
2021/05/13 16:38:50;;;;;;;2.55;2.10;;;;;;;18.43;46.49;100431.91;1759983;81;20969;-82
2021/05/13 16:41:17;;;;;;;5.10;1.80;;;;;;;18.37;46.20;100430.73;1760040;81;21092;-81
2021/05/13 16:43:44;;;;;;;2.50;2.00;;;;;;;18.26;46.20;100429.67;1760200;81;22728;-81
2021/05/13 16:46:12;;;;;;;2.80;1.85;;;;;;;18.10;46.54;100424.81;1760146;81;21035;-79
2021/05/13 16:48:39;;;;;;;3.25;2.00;;;;;;;18.00;47.07;100422.80;1760571;81;20895;-81
2021/05/13 16:51:07;;;;;;;4.33;1.85;;;;;;;17.90;47.46;100421.59;1760162;81;20901;-77
2021/05/13 16:53:34;;;;;;;5.60;2.47;;;;;;;17.77;47.97;100417.23;1760150;81;21090;-80
2021/05/13 16:56:01;;;;;;;4.72;2.47;;;;;;;17.65;48.87;100423.19;1760187;81;21056;-77
2021/05/13 16:58:28;;;;;;;3.45;1.98;;;;;;;17.53;49.57;100424.86;1760376;81;20897;-84
2021/05/13 17:00:56;;;;;;;6.03;2.80;;;;;;;17.39;50.30;100431.45;1760555;81;20977;-82
2021/05/13 17:03:23;;;;;;;4.42;2.20;;;;;;;17.29;51.13;100435.98;1760284;81;21005;-80
2021/05/13 17:05:56;;;;;;;3.95;2.10;;;;;;;17.19;52.17;100444.39;1760079;81;21085;-82
2021/05/13 17:08:19;;;;;;;3.35;2.12;;;;;;;17.12;52.84;100445.95;1759722;81;20925;-76
2021/05/13 17:10:46;;;;;;;3.27;2.25;;;;;;;17.05;53.58;100448.83;1760398;81;20992;-78
2021/05/13 17:13:13;;;;;;;4.08;2.35;;;;;;;16.97;54.15;100452.69;1760195;81;20997;-80
2021/05/13 17:15:40;;;;;;;4.58;2.87;;;;;;;16.89;54.81;100452.09;1760461;81;20905;-79
2021/05/13 17:18:07;;;;;;;7.05;2.60;;;;;;;16.80;55.42;100447.25;1760552;81;21088;-79
2021/05/13 17:20:34;;;;;;;5.35;2.37;;;;;;;16.72;56.01;100451.59;1760094;81;21001;-84
2021/05/13 17:23:02;;;;;;;8.28;3.10;;;;;;;16.61;56.58;100448.66;1760101;81;21023;-81
2021/05/13 17:25:29;;;;;;;6.33;2.70;;;;;;;16.50;57.09;100452.73;1760227;80;20886;-81
2021/05/13 17:27:57;;;;;;;4.35;2.92;;;;;;;16.41;57.46;100457.52;1760046;81;21063;-86
2021/05/13 17:30:24;;;;;;;5.28;2.75;;;;;;;16.34;57.86;100449.89;1760116;81;21169;-78
2021/05/13 17:32:52;;;;;;;7.80;2.92;;;;;;;16.27;58.70;100451.45;1759988;81;21021;-84
2021/05/13 17:35:19;;;;;;;6.03;3.33;;;;;;;16.21;59.34;100451.52;1760329;81;20913;-83
2021/05/13 17:37:46;;;;;;;7.05;3.00;;;;;;;16.15;59.58;100453.87;1760406;81;21029;-80
2021/05/13 17:40:14;;;;;;;4.78;3.10;;;;;;;16.09;59.81;100459.20;1760495;81;20941;-81
2021/05/13 17:42:42;;;;;;;4.17;2.50;;;;;;;16.04;60.35;100452.27;1760015;81;21661;-83
2021/05/13 17:45:10;;;;;;;8.25;3.52;;;;;;;15.99;60.88;100448.39;1760470;81;21479;-85
2021/05/13 17:47:37;;;;;;;7.15;3.58;;;;;;;15.92;61.39;100450.78;1760018;81;21025;-85
2021/05/13 17:50:09;;;;;;;6.95;2.75;;;;;;;15.86;61.98;100444.77;1760082;81;20993;-80
2021/05/13 17:52:36;;;;;;;9.87;4.10;;;;;;;15.80;62.64;100445.33;1760452;81;21024;-83
2021/05/13 17:55:07;;;;;;;7.03;3.58;;;;;;;15.74;63.32;100447.20;1760278;81;21089;-81
2021/05/13 17:57:37;;;;;;;8.40;3.40;;;;;;;15.67;63.93;100445.62;1760167;81;21013;-82
2021/05/13 18:00:07;;;;;;;5.87;2.90;;;;;;;15.63;64.73;100453.91;1760250;81;20949;-80